createdAt,value
2022-10-13T00:03:48.535Z,10.88
2022-10-13T00:07:58.496Z,11.00
2022-10-13T00:12:00.520Z,10.07
2022-10-13T00:16:03.453Z,10.75
2022-10-13T00:20:06.611Z,10.80
2022-10-13T00:24:11.523Z,10.25
2022-10-13T00:28:15.644Z,9.80
2022-10-13T00:32:17.984Z,10.38
2022-10-13T00:36:22.067Z,9.77
2022-10-13T00:40:24.114Z,10.20
2022-10-13T00:44:54.294Z,10.02
2022-10-13T00:48:59.556Z,8.52
2022-10-13T00:53:01.942Z,9.85
2022-10-13T00:57:04.625Z,8.32
2022-10-13T01:01:07.128Z,9.02
2022-10-13T01:05:09.371Z,9.07
2022-10-13T01:09:11.473Z,8.18
2022-10-13T01:13:24.648Z,8.77
2022-10-13T01:17:38.887Z,7.47
2022-10-13T01:21:47.376Z,7.30
2022-10-13T01:26:22.645Z,7.13
2022-10-13T01:30:24.876Z,6.93
2022-10-13T01:34:34.461Z,6.40
2022-10-13T01:38:46.154Z,6.22
2022-10-13T01:42:59.244Z,6.82
2022-10-13T01:47:02.574Z,7.22
2022-10-13T01:51:07.087Z,7.70
2022-10-13T01:55:11.808Z,7.57
2022-10-13T01:59:14.757Z,7.20
2022-10-13T02:03:46.613Z,7.63
2022-10-13T02:07:56.444Z,7.55
2022-10-13T02:12:29.960Z,8.48
2022-10-13T02:16:40.991Z,8.57
2022-10-13T02:20:44.480Z,8.57
2022-10-13T02:24:46.703Z,9.55
2022-10-13T02:28:48.847Z,9.38
2022-10-13T02:32:51.203Z,9.88
2022-10-13T02:36:53.332Z,9.80
2022-10-13T02:40:55.408Z,9.82
2022-10-13T02:44:57.483Z,7.88
2022-10-13T02:48:59.562Z,6.50
2022-10-13T02:53:03.717Z,7.25
2022-10-13T02:57:05.729Z,7.00
2022-10-13T03:01:14.285Z,7.20
2022-10-13T03:05:17.072Z,6.88
2022-10-13T03:09:19.103Z,7.20
2022-10-13T03:13:21.158Z,7.05
2022-10-13T03:17:23.227Z,8.45
2022-10-13T03:21:25.631Z,9.05
2022-10-13T03:25:28.126Z,9.88
2022-10-13T03:29:30.223Z,10.00
2022-10-13T03:33:32.551Z,9.82
2022-10-13T03:37:34.536Z,7.43
2022-10-13T03:41:36.545Z,6.88
2022-10-13T03:45:38.653Z,7.13
2022-10-13T03:49:40.633Z,7.75
2022-10-13T03:53:42.713Z,13.18
2022-10-13T03:57:44.730Z,8.93
2022-10-13T04:01:46.824Z,8.02
2022-10-13T04:05:48.850Z,8.15
2022-10-13T04:09:52.120Z,8.77
2022-10-13T04:13:56.239Z,8.75
2022-10-13T04:17:58.280Z,8.52
2022-10-13T04:22:00.282Z,8.70
2022-10-13T04:26:02.481Z,8.82
2022-10-13T04:30:05.686Z,8.70
2022-10-13T04:34:08.450Z,7.50
2022-10-13T04:38:10.586Z,7.90
2022-10-13T04:42:12.634Z,8.30
2022-10-13T04:46:20.525Z,8.45
2022-10-13T04:50:23.908Z,8.80
2022-10-13T04:54:33.423Z,9.52
2022-10-13T04:58:36.196Z,8.18
2022-10-13T05:02:38.307Z,8.77
2022-10-13T05:07:05.316Z,8.88
2022-10-13T05:11:03.824Z,8.85
2022-10-13T05:15:06.399Z,8.82
2022-10-13T05:19:08.787Z,10.15
2022-10-13T05:23:10.794Z,9.82
2022-10-13T05:27:13.417Z,8.82
2022-10-13T05:31:18.610Z,9.32
2022-10-13T05:35:20.606Z,8.02
2022-10-13T05:39:22.692Z,7.72
2022-10-13T05:43:24.725Z,8.05
2022-10-13T05:47:28.309Z,8.32
2022-10-13T05:51:35.132Z,7.93
2022-10-13T05:55:38.306Z,8.90
2022-10-13T05:59:45.403Z,8.95
2022-10-13T06:03:49.640Z,9.68
2022-10-13T06:07:51.921Z,9.00
2022-10-13T06:11:53.903Z,8.02
2022-10-13T06:15:57.506Z,7.70
2022-10-13T06:20:00.052Z,8.20
2022-10-13T06:24:02.488Z,8.05
2022-10-13T06:28:04.563Z,8.38
2022-10-13T06:32:07.134Z,9.52
2022-10-13T06:36:09.644Z,9.07
2022-10-13T06:40:11.941Z,9.85
2022-10-13T06:44:14.062Z,8.40
2022-10-13T06:48:16.043Z,9.30
2022-10-13T06:52:18.306Z,8.40
2022-10-13T06:56:20.464Z,8.93
2022-10-13T07:00:22.617Z,9.23
2022-10-13T07:04:25.860Z,8.63
2022-10-13T07:08:31.116Z,7.22
2022-10-13T07:12:33.146Z,7.53
2022-10-13T07:16:35.133Z,7.57
2022-10-13T07:20:37.936Z,7.35
2022-10-13T07:24:39.935Z,7.43
2022-10-13T07:28:43.402Z,7.32
2022-10-13T07:32:45.506Z,8.05
2022-10-13T07:36:47.574Z,11.82
2022-10-13T07:40:49.658Z,11.05
2022-10-13T07:44:51.677Z,9.45
2022-10-13T07:48:54.380Z,9.50
2022-10-13T07:52:56.400Z,9.07
2022-10-13T07:56:58.415Z,9.90
2022-10-13T08:01:01.975Z,9.85
2022-10-13T08:05:05.664Z,9.60
2022-10-13T08:09:07.804Z,9.38
2022-10-13T08:13:11.202Z,8.95
2022-10-13T08:17:13.201Z,8.85
2022-10-13T08:25:43.772Z,8.30
2022-10-13T08:29:45.970Z,8.88
2022-10-13T08:33:48.132Z,12.98
2022-10-13T08:37:50.449Z,8.32
2022-10-13T08:41:54.180Z,9.05
2022-10-13T08:45:59.558Z,8.63
2022-10-13T08:50:13.634Z,7.82
2022-10-13T08:54:19.257Z,9.63
2022-10-13T08:58:25.759Z,8.18
2022-10-13T09:02:31.485Z,8.07
2022-10-13T09:06:37.905Z,7.97
2022-10-13T09:10:49.364Z,7.75
2022-10-13T09:15:01.280Z,8.82
2022-10-13T09:19:15.052Z,7.13
2022-10-13T09:23:20.234Z,7.80
2022-10-13T09:27:22.213Z,7.00
2022-10-13T09:31:30.196Z,6.60
2022-10-13T09:35:34.424Z,8.18
2022-10-13T09:39:37.161Z,8.13
2022-10-13T09:43:43.578Z,6.82
2022-10-13T09:48:02.813Z,7.88
2022-10-13T09:52:13.887Z,7.40
2022-10-13T09:56:34.549Z,7.65
2022-10-13T10:00:37.334Z,7.80
2022-10-13T10:04:43.181Z,7.80
2022-10-13T10:09:13.244Z,8.88
2022-10-13T10:13:15.874Z,9.82
2022-10-13T10:17:29.097Z,9.02
2022-10-13T10:21:44.118Z,8.98
2022-10-13T10:25:54.046Z,8.15
2022-10-13T10:30:03.832Z,8.20
2022-10-13T10:34:26.193Z,8.50
2022-10-13T10:38:52.802Z,8.07
2022-10-13T10:43:06.902Z,9.00
2022-10-13T10:47:32.816Z,10.68
2022-10-13T10:51:37.814Z,10.23
2022-10-13T10:55:51.426Z,11.13
2022-10-13T11:00:09.969Z,9.85
2022-10-13T11:04:33.084Z,10.65
2022-10-13T11:08:38.494Z,9.95
2022-10-13T11:12:50.633Z,10.07
2022-10-13T11:17:02.413Z,9.60
2022-10-13T11:21:04.551Z,9.20
2022-10-13T11:25:36.620Z,9.70
2022-10-13T11:29:57.736Z,9.57
2022-10-13T11:34:01.715Z,10.35
2022-10-13T11:38:18.127Z,10.05
2022-10-13T11:42:35.746Z,10.55
2022-10-13T11:47:27.587Z,11.60
2022-10-13T11:51:38.400Z,11.25
2022-10-13T11:55:53.676Z,9.38
2022-10-13T11:59:56.893Z,8.77
2022-10-13T12:04:14.408Z,8.10
2022-10-13T12:08:18.634Z,8.57
2022-10-13T12:12:23.043Z,7.32
2022-10-13T12:16:26.486Z,6.68
2022-10-13T12:20:31.737Z,7.25
2022-10-13T12:24:33.764Z,7.70
2022-10-13T12:28:54.072Z,8.52
2022-10-13T12:32:58.830Z,8.68
2022-10-13T12:37:03.769Z,8.23
2022-10-13T12:41:06.123Z,7.68
2022-10-13T12:45:16.092Z,7.57
2022-10-13T12:49:27.364Z,6.57
2022-10-13T12:53:29.481Z,8.30
2022-10-13T12:57:38.235Z,8.82
2022-10-13T13:01:40.349Z,8.43
2022-10-13T13:05:49.243Z,7.85
2022-10-13T13:10:09.187Z,8.52
2022-10-13T13:14:33.460Z,8.95
2022-10-13T13:18:41.762Z,8.77
2022-10-13T13:22:43.817Z,9.23
2022-10-13T13:26:46.241Z,9.45
2022-10-13T13:30:48.273Z,9.38
2022-10-13T13:34:50.869Z,9.15
2022-10-13T13:38:54.377Z,8.85
2022-10-13T13:42:56.537Z,9.90
2022-10-13T13:47:03.181Z,10.45
2022-10-13T13:51:05.537Z,9.73
2022-10-13T13:55:08.353Z,10.52
2022-10-13T13:59:10.361Z,10.75
2022-10-13T14:03:15.858Z,11.05
2022-10-13T14:07:21.592Z,10.77
2022-10-13T14:11:26.416Z,9.43
2022-10-13T14:15:29.881Z,10.52
2022-10-13T14:19:32.968Z,10.48
2022-10-13T14:23:35.600Z,10.63
2022-10-13T14:27:37.794Z,10.40
2022-10-13T14:31:43.056Z,11.23
2022-10-13T14:35:45.840Z,10.50
2022-10-13T14:39:51.081Z,11.38
2022-10-13T14:43:56.904Z,10.77
2022-10-13T14:47:58.943Z,9.90
2022-10-13T14:52:01.108Z,10.32
2022-10-13T14:56:03.889Z,10.13
2022-10-13T15:00:06.640Z,9.68
2022-10-13T15:04:09.017Z,9.85
2022-10-13T15:08:13.342Z,9.35
2022-10-13T15:12:15.352Z,10.75
2022-10-13T15:16:26.194Z,11.75
2022-10-13T15:20:29.147Z,11.10
2022-10-13T15:24:31.153Z,12.13
2022-10-13T15:28:39.689Z,10.40
2022-10-13T15:32:45.132Z,12.07
2022-10-13T15:36:47.130Z,12.45
2022-10-13T15:40:50.456Z,11.55
2022-10-13T15:49:14.492Z,11.93
2022-10-13T15:53:16.600Z,12.80
2022-10-13T15:57:18.616Z,10.93
2022-10-13T16:01:20.763Z,10.35
2022-10-13T16:05:22.875Z,10.23
2022-10-13T16:09:24.893Z,10.38
2022-10-13T16:13:26.952Z,12.10
2022-10-13T16:17:28.998Z,11.52
2022-10-13T16:21:31.032Z,12.48
2022-10-13T16:25:33.043Z,13.13
2022-10-13T16:29:35.132Z,12.40
2022-10-13T16:33:37.234Z,12.88
2022-10-13T16:37:39.287Z,12.60
2022-10-13T16:41:41.447Z,13.27
2022-10-13T16:45:59.055Z,12.52
2022-10-13T16:50:06.148Z,12.30
2022-10-13T16:54:08.900Z,13.43
2022-10-13T16:58:11.147Z,13.85
2022-10-13T17:02:14.773Z,12.40
2022-10-13T17:06:18.441Z,13.05
2022-10-13T17:10:20.545Z,12.98
2022-10-13T17:14:22.562Z,12.88
2022-10-13T17:18:26.061Z,13.70
2022-10-13T17:22:28.076Z,13.07
2022-10-13T17:26:30.110Z,12.95
2022-10-13T17:30:32.089Z,13.48
2022-10-13T17:34:36.303Z,12.73
2022-10-13T17:38:38.651Z,12.40
2022-10-13T17:42:40.701Z,12.88
2022-10-13T17:46:42.734Z,13.20
2022-10-13T17:50:44.773Z,12.77
2022-10-13T17:54:46.789Z,13.23
2022-10-13T17:58:50.105Z,14.38
2022-10-13T18:02:52.902Z,12.82
2022-10-13T18:06:54.886Z,13.90
2022-10-13T18:11:08.660Z,14.98
2022-10-13T18:15:10.838Z,15.07
2022-10-13T18:19:13.284Z,15.85
2022-10-13T18:23:15.426Z,17.30
2022-10-13T18:27:17.499Z,17.38
2022-10-13T18:31:21.024Z,16.70
2022-10-13T18:35:28.727Z,17.10
2022-10-13T18:39:34.996Z,16.35
2022-10-13T18:43:37.103Z,15.35
2022-10-13T18:47:39.205Z,14.85
2022-10-13T18:51:41.922Z,14.27
2022-10-13T18:55:44.356Z,15.23
2022-10-13T18:59:46.374Z,15.32
2022-10-13T19:03:50.563Z,15.55
2022-10-13T19:07:52.592Z,15.10
2022-10-13T19:11:57.627Z,14.93
2022-10-13T19:16:02.997Z,14.68
2022-10-13T19:20:05.598Z,14.57
2022-10-13T19:24:08.216Z,14.60
2022-10-13T19:28:11.082Z,14.88
2022-10-13T19:32:13.083Z,14.55
2022-10-13T19:36:30.165Z,13.52
2022-10-13T19:40:40.053Z,13.60
2022-10-13T19:44:44.206Z,12.98
2022-10-13T19:48:46.444Z,9.95
2022-10-13T19:52:48.486Z,9.00
2022-10-13T19:56:51.204Z,6.10
2022-10-13T20:00:53.236Z,4.90
2022-10-13T20:04:55.280Z,3.83
2022-10-13T20:08:58.605Z,4.40
2022-10-13T20:13:00.599Z,4.97
2022-10-13T20:17:02.839Z,6.82
2022-10-13T20:21:07.114Z,8.00
2022-10-13T20:25:09.545Z,6.22
2022-10-13T20:29:11.692Z,6.95
2022-10-13T20:33:13.866Z,5.70
2022-10-13T20:37:15.963Z,5.88
2022-10-13T20:41:21.259Z,5.57
2022-10-13T20:45:23.320Z,4.97
2022-10-13T20:49:25.326Z,5.35
2022-10-13T20:53:27.806Z,6.80
2022-10-13T20:57:29.825Z,10.35
2022-10-13T21:01:32.620Z,13.40
2022-10-13T21:05:34.614Z,17.13
2022-10-13T21:09:36.787Z,9.40
2022-10-13T21:13:39.918Z,11.57
2022-10-13T21:17:42.594Z,11.20
2022-10-13T21:21:44.657Z,10.65
2022-10-13T21:25:46.671Z,9.07
2022-10-13T21:29:48.678Z,8.75
2022-10-13T21:33:51.363Z,7.38
2022-10-13T21:37:53.411Z,6.40
2022-10-13T21:41:55.456Z,6.13
2022-10-13T21:46:23.195Z,5.80
2022-10-13T21:50:28.145Z,5.70
2022-10-13T21:54:30.132Z,7.32
2022-10-13T21:58:32.252Z,5.68
2022-10-13T22:02:34.266Z,6.10
2022-10-13T22:06:36.315Z,6.30
2022-10-13T22:10:38.317Z,7.05
2022-10-13T22:14:40.377Z,5.65
2022-10-13T22:18:42.670Z,4.05
2022-10-13T22:22:44.644Z,4.00
2022-10-13T22:26:48.655Z,4.20
2022-10-13T22:30:52.334Z,3.83
2022-10-13T22:34:54.340Z,3.35
2022-10-13T22:38:58.777Z,4.10
2022-10-13T22:43:00.763Z,4.60
2022-10-13T22:47:03.012Z,4.35
2022-10-13T22:51:06.502Z,4.05
2022-10-13T22:55:09.117Z,4.30
2022-10-13T22:59:12.945Z,4.55
2022-10-13T23:03:15.240Z,4.30
2022-10-13T23:07:22.058Z,3.85
2022-10-13T23:11:24.348Z,3.50
2022-10-13T23:15:26.433Z,3.80
2022-10-13T23:19:28.599Z,4.07
2022-10-13T23:23:30.887Z,3.70
2022-10-13T23:27:32.898Z,3.90
2022-10-13T23:31:35.001Z,3.92
2022-10-13T23:35:36.994Z,3.78
2022-10-13T23:39:38.976Z,3.67
2022-10-13T23:43:41.627Z,3.38
2022-10-13T23:47:43.625Z,3.45
2022-10-13T23:51:45.740Z,3.55
2022-10-13T23:55:47.862Z,3.60
2022-10-13T23:59:49.860Z,3.20
